sensor_id;sensor_type;location;lat;lon;timestamp;P1;durP1;ratioP1;P2;durP2;ratioP2
17382;SDS011;8809;51.892;8.384;2023-02-23T00:01:15;27.73;;;19.75;;
17382;SDS011;8809;51.892;8.384;2023-02-23T00:03:43;38.70;;;27.05;;
17382;SDS011;8809;51.892;8.384;2023-02-23T00:06:13;37.58;;;24.65;;
17382;SDS011;8809;51.892;8.384;2023-02-23T00:08:41;35.63;;;23.88;;
17382;SDS011;8809;51.892;8.384;2023-02-23T00:11:10;36.70;;;25.13;;
17382;SDS011;8809;51.892;8.384;2023-02-23T00:13:38;34.50;;;22.15;;
17382;SDS011;8809;51.892;8.384;2023-02-23T00:16:06;28.45;;;19.52;;
17382;SDS011;8809;51.892;8.384;2023-02-23T00:18:36;27.48;;;19.10;;
17382;SDS011;8809;51.892;8.384;2023-02-23T00:21:10;27.25;;;18.67;;
17382;SDS011;8809;51.892;8.384;2023-02-23T00:23:40;26.23;;;17.50;;
17382;SDS011;8809;51.892;8.384;2023-02-23T00:26:09;28.52;;;19.65;;
17382;SDS011;8809;51.892;8.384;2023-02-23T00:28:41;26.08;;;18.50;;
17382;SDS011;8809;51.892;8.384;2023-02-23T00:31:09;24.65;;;17.42;;
17382;SDS011;8809;51.892;8.384;2023-02-23T00:33:39;26.08;;;18.17;;
17382;SDS011;8809;51.892;8.384;2023-02-23T00:36:09;28.60;;;18.80;;
17382;SDS011;8809;51.892;8.384;2023-02-23T00:38:37;26.42;;;18.75;;
17382;SDS011;8809;51.892;8.384;2023-02-23T00:41:06;33.10;;;24.52;;
17382;SDS011;8809;51.892;8.384;2023-02-23T00:43:36;34.80;;;24.63;;
17382;SDS011;8809;51.892;8.384;2023-02-23T00:46:11;33.65;;;22.80;;
17382;SDS011;8809;51.892;8.384;2023-02-23T00:48:40;32.33;;;22.10;;
17382;SDS011;8809;51.892;8.384;2023-02-23T00:51:08;29.45;;;19.35;;
17382;SDS011;8809;51.892;8.384;2023-02-23T00:53:36;25.88;;;18.05;;
17382;SDS011;8809;51.892;8.384;2023-02-23T00:56:03;25.80;;;18.23;;
17382;SDS011;8809;51.892;8.384;2023-02-23T00:58:31;41.22;;;28.35;;
17382;SDS011;8809;51.892;8.384;2023-02-23T01:01:00;32.63;;;21.70;;
17382;SDS011;8809;51.892;8.384;2023-02-23T01:03:28;28.63;;;20.73;;
17382;SDS011;8809;51.892;8.384;2023-02-23T01:05:58;27.83;;;20.85;;
17382;SDS011;8809;51.892;8.384;2023-02-23T01:08:25;31.30;;;21.77;;
17382;SDS011;8809;51.892;8.384;2023-02-23T01:10:52;30.48;;;21.33;;
17382;SDS011;8809;51.892;8.384;2023-02-23T01:13:22;31.88;;;21.33;;
17382;SDS011;8809;51.892;8.384;2023-02-23T01:15:50;31.80;;;22.20;;
17382;SDS011;8809;51.892;8.384;2023-02-23T01:18:19;29.98;;;20.98;;
17382;SDS011;8809;51.892;8.384;2023-02-23T01:20:46;27.70;;;19.38;;
17382;SDS011;8809;51.892;8.384;2023-02-23T01:23:14;27.83;;;19.65;;
17382;SDS011;8809;51.892;8.384;2023-02-23T01:25:42;28.08;;;19.40;;
17382;SDS011;8809;51.892;8.384;2023-02-23T01:28:11;28.90;;;19.58;;
17382;SDS011;8809;51.892;8.384;2023-02-23T01:30:38;28.90;;;20.13;;
17382;SDS011;8809;51.892;8.384;2023-02-23T01:33:05;27.17;;;19.05;;
17382;SDS011;8809;51.892;8.384;2023-02-23T01:35:33;28.83;;;19.20;;
17382;SDS011;8809;51.892;8.384;2023-02-23T01:38:01;29.50;;;20.85;;
17382;SDS011;8809;51.892;8.384;2023-02-23T01:40:29;28.27;;;19.70;;
17382;SDS011;8809;51.892;8.384;2023-02-23T01:42:57;30.23;;;21.50;;
17382;SDS011;8809;51.892;8.384;2023-02-23T01:45:27;22.50;;;16.40;;
17382;SDS011;8809;51.892;8.384;2023-02-23T01:48:01;24.10;;;17.20;;
17382;SDS011;8809;51.892;8.384;2023-02-23T01:50:35;22.25;;;15.10;;
17382;SDS011;8809;51.892;8.384;2023-02-23T01:53:10;23.00;;;14.80;;
17382;SDS011;8809;51.892;8.384;2023-02-23T01:55:37;20.83;;;15.23;;
17382;SDS011;8809;51.892;8.384;2023-02-23T01:58:06;19.88;;;14.77;;
17382;SDS011;8809;51.892;8.384;2023-02-23T02:00:40;19.25;;;13.38;;
17382;SDS011;8809;51.892;8.384;2023-02-23T02:03:11;17.55;;;13.07;;
17382;SDS011;8809;51.892;8.384;2023-02-23T02:05:43;16.10;;;11.07;;
17382;SDS011;8809;51.892;8.384;2023-02-23T02:08:11;13.68;;;10.90;;
17382;SDS011;8809;51.892;8.384;2023-02-23T02:10:38;15.45;;;11.18;;
17382;SDS011;8809;51.892;8.384;2023-02-23T02:13:08;15.57;;;11.43;;
17382;SDS011;8809;51.892;8.384;2023-02-23T02:15:42;14.15;;;9.82;;
17382;SDS011;8809;51.892;8.384;2023-02-23T02:18:24;12.18;;;9.10;;
17382;SDS011;8809;51.892;8.384;2023-02-23T02:24:14;17.42;;;12.73;;
17382;SDS011;8809;51.892;8.384;2023-02-23T02:27:01;16.88;;;11.68;;
17382;SDS011;8809;51.892;8.384;2023-02-23T02:32:59;22.80;;;16.52;;
17382;SDS011;8809;51.892;8.384;2023-02-23T02:35:46;20.65;;;14.38;;
17382;SDS011;8809;51.892;8.384;2023-02-23T02:38:32;19.17;;;13.43;;
17382;SDS011;8809;51.892;8.384;2023-02-23T02:41:08;15.93;;;11.27;;
17382;SDS011;8809;51.892;8.384;2023-02-23T02:43:43;16.15;;;10.77;;
17382;SDS011;8809;51.892;8.384;2023-02-23T02:46:18;20.27;;;13.88;;
17382;SDS011;8809;51.892;8.384;2023-02-23T02:48:50;22.48;;;15.82;;
17382;SDS011;8809;51.892;8.384;2023-02-23T02:51:24;20.25;;;14.85;;
17382;SDS011;8809;51.892;8.384;2023-02-23T02:53:57;22.27;;;15.55;;
17382;SDS011;8809;51.892;8.384;2023-02-23T02:56:31;20.25;;;14.18;;
17382;SDS011;8809;51.892;8.384;2023-02-23T02:59:04;17.85;;;12.77;;
17382;SDS011;8809;51.892;8.384;2023-02-23T03:01:52;17.15;;;12.25;;
17382;SDS011;8809;51.892;8.384;2023-02-23T03:04:38;17.98;;;13.48;;
17382;SDS011;8809;51.892;8.384;2023-02-23T03:07:25;20.52;;;15.20;;
17382;SDS011;8809;51.892;8.384;2023-02-23T03:10:19;23.60;;;16.27;;
17382;SDS011;8809;51.892;8.384;2023-02-23T03:13:14;23.92;;;17.05;;
17382;SDS011;8809;51.892;8.384;2023-02-23T03:16:05;24.33;;;17.27;;
17382;SDS011;8809;51.892;8.384;2023-02-23T03:19:02;22.48;;;15.63;;
17382;SDS011;8809;51.892;8.384;2023-02-23T03:21:55;19.10;;;12.80;;
17382;SDS011;8809;51.892;8.384;2023-02-23T03:24:50;20.60;;;14.82;;
17382;SDS011;8809;51.892;8.384;2023-02-23T04:05:23;16.13;;;11.93;;
17382;SDS011;8809;51.892;8.384;2023-02-23T04:08:11;16.00;;;11.02;;
17382;SDS011;8809;51.892;8.384;2023-02-23T04:10:59;16.02;;;12.05;;
17382;SDS011;8809;51.892;8.384;2023-02-23T04:13:52;16.92;;;11.43;;
17382;SDS011;8809;51.892;8.384;2023-02-23T04:16:22;15.18;;;11.23;;
17382;SDS011;8809;51.892;8.384;2023-02-23T04:18:49;15.25;;;10.57;;
17382;SDS011;8809;51.892;8.384;2023-02-23T04:21:18;15.88;;;11.38;;
17382;SDS011;8809;51.892;8.384;2023-02-23T04:23:45;14.60;;;10.82;;
17382;SDS011;8809;51.892;8.384;2023-02-23T04:26:13;13.32;;;9.85;;
17382;SDS011;8809;51.892;8.384;2023-02-23T04:28:40;14.88;;;11.40;;
17382;SDS011;8809;51.892;8.384;2023-02-23T04:31:07;15.93;;;11.00;;
17382;SDS011;8809;51.892;8.384;2023-02-23T04:33:34;13.63;;;9.98;;
17382;SDS011;8809;51.892;8.384;2023-02-23T04:36:02;12.90;;;9.85;;
17382;SDS011;8809;51.892;8.384;2023-02-23T04:38:30;14.18;;;10.38;;
17382;SDS011;8809;51.892;8.384;2023-02-23T04:40:57;13.68;;;10.30;;
17382;SDS011;8809;51.892;8.384;2023-02-23T04:43:24;13.00;;;9.75;;
17382;SDS011;8809;51.892;8.384;2023-02-23T04:45:51;13.10;;;10.20;;
17382;SDS011;8809;51.892;8.384;2023-02-23T04:48:18;15.60;;;10.85;;
17382;SDS011;8809;51.892;8.384;2023-02-23T04:50:45;15.52;;;10.85;;
17382;SDS011;8809;51.892;8.384;2023-02-23T04:53:12;14.07;;;11.10;;
17382;SDS011;8809;51.892;8.384;2023-02-23T04:55:41;13.50;;;10.23;;
17382;SDS011;8809;51.892;8.384;2023-02-23T04:58:08;14.85;;;11.27;;
17382;SDS011;8809;51.892;8.384;2023-02-23T05:00:37;13.98;;;10.13;;
17382;SDS011;8809;51.892;8.384;2023-02-23T05:03:05;15.27;;;11.40;;
17382;SDS011;8809;51.892;8.384;2023-02-23T05:05:32;15.95;;;11.23;;
17382;SDS011;8809;51.892;8.384;2023-02-23T05:07:59;15.30;;;10.73;;
17382;SDS011;8809;51.892;8.384;2023-02-23T05:10:26;22.00;;;16.17;;
17382;SDS011;8809;51.892;8.384;2023-02-23T05:12:55;26.23;;;17.45;;
17382;SDS011;8809;51.892;8.384;2023-02-23T05:15:23;26.40;;;19.33;;
17382;SDS011;8809;51.892;8.384;2023-02-23T05:17:50;30.45;;;21.05;;
17382;SDS011;8809;51.892;8.384;2023-02-23T05:20:18;28.75;;;20.00;;
17382;SDS011;8809;51.892;8.384;2023-02-23T05:22:47;28.85;;;19.80;;
17382;SDS011;8809;51.892;8.384;2023-02-23T05:25:14;24.80;;;17.67;;
17382;SDS011;8809;51.892;8.384;2023-02-23T05:27:41;31.20;;;20.27;;
17382;SDS011;8809;51.892;8.384;2023-02-23T05:30:11;28.27;;;19.88;;
17382;SDS011;8809;51.892;8.384;2023-02-23T05:32:40;24.95;;;17.45;;
17382;SDS011;8809;51.892;8.384;2023-02-23T05:35:10;28.05;;;20.55;;
17382;SDS011;8809;51.892;8.384;2023-02-23T05:37:37;29.45;;;19.73;;
17382;SDS011;8809;51.892;8.384;2023-02-23T05:40:09;33.17;;;20.95;;
17382;SDS011;8809;51.892;8.384;2023-02-23T05:42:36;39.40;;;24.35;;
17382;SDS011;8809;51.892;8.384;2023-02-23T05:45:04;34.35;;;23.83;;
17382;SDS011;8809;51.892;8.384;2023-02-23T05:47:34;32.58;;;22.10;;
17382;SDS011;8809;51.892;8.384;2023-02-23T05:50:06;25.60;;;18.65;;
17382;SDS011;8809;51.892;8.384;2023-02-23T05:52:36;23.48;;;16.55;;
17382;SDS011;8809;51.892;8.384;2023-02-23T05:55:06;24.92;;;17.23;;
17382;SDS011;8809;51.892;8.384;2023-02-23T05:57:35;23.90;;;16.05;;
17382;SDS011;8809;51.892;8.384;2023-02-23T06:00:06;24.35;;;17.45;;
17382;SDS011;8809;51.892;8.384;2023-02-23T06:02:36;23.25;;;15.18;;
17382;SDS011;8809;51.892;8.384;2023-02-23T06:05:03;19.15;;;14.35;;
17382;SDS011;8809;51.892;8.384;2023-02-23T06:07:31;19.65;;;14.38;;
17382;SDS011;8809;51.892;8.384;2023-02-23T06:09:58;19.70;;;13.90;;
17382;SDS011;8809;51.892;8.384;2023-02-23T06:12:25;18.75;;;13.82;;
17382;SDS011;8809;51.892;8.384;2023-02-23T06:14:52;18.33;;;14.18;;
17382;SDS011;8809;51.892;8.384;2023-02-23T06:17:19;18.40;;;13.35;;
17382;SDS011;8809;51.892;8.384;2023-02-23T06:19:48;18.83;;;13.23;;
17382;SDS011;8809;51.892;8.384;2023-02-23T06:22:15;18.92;;;12.73;;
17382;SDS011;8809;51.892;8.384;2023-02-23T06:24:42;16.30;;;12.63;;
17382;SDS011;8809;51.892;8.384;2023-02-23T06:27:10;18.25;;;12.27;;
17382;SDS011;8809;51.892;8.384;2023-02-23T06:29:38;17.85;;;12.50;;
17382;SDS011;8809;51.892;8.384;2023-02-23T06:32:06;17.70;;;12.98;;
17382;SDS011;8809;51.892;8.384;2023-02-23T06:34:33;17.83;;;13.15;;
17382;SDS011;8809;51.892;8.384;2023-02-23T06:37:01;18.58;;;12.65;;
17382;SDS011;8809;51.892;8.384;2023-02-23T06:39:30;20.95;;;14.90;;
17382;SDS011;8809;51.892;8.384;2023-02-23T06:41:58;22.73;;;15.93;;
17382;SDS011;8809;51.892;8.384;2023-02-23T06:44:25;19.10;;;13.57;;
17382;SDS011;8809;51.892;8.384;2023-02-23T06:46:52;21.00;;;14.27;;
17382;SDS011;8809;51.892;8.384;2023-02-23T06:49:19;22.38;;;16.05;;
17382;SDS011;8809;51.892;8.384;2023-02-23T06:51:46;23.10;;;16.13;;
17382;SDS011;8809;51.892;8.384;2023-02-23T06:54:14;21.30;;;15.18;;
17382;SDS011;8809;51.892;8.384;2023-02-23T06:56:42;21.60;;;14.60;;
17382;SDS011;8809;51.892;8.384;2023-02-23T06:59:09;19.15;;;13.38;;
17382;SDS011;8809;51.892;8.384;2023-02-23T07:01:36;19.17;;;13.20;;
17382;SDS011;8809;51.892;8.384;2023-02-23T07:04:03;17.80;;;12.35;;
17382;SDS011;8809;51.892;8.384;2023-02-23T07:06:30;20.20;;;13.93;;
17382;SDS011;8809;51.892;8.384;2023-02-23T07:08:57;20.73;;;14.82;;
17382;SDS011;8809;51.892;8.384;2023-02-23T07:11:26;21.40;;;14.90;;
17382;SDS011;8809;51.892;8.384;2023-02-23T07:13:55;20.77;;;13.52;;
17382;SDS011;8809;51.892;8.384;2023-02-23T07:16:23;18.50;;;13.35;;
17382;SDS011;8809;51.892;8.384;2023-02-23T07:18:52;19.63;;;14.30;;
17382;SDS011;8809;51.892;8.384;2023-02-23T07:21:19;23.67;;;15.82;;
17382;SDS011;8809;51.892;8.384;2023-02-23T07:23:49;24.27;;;17.13;;
17382;SDS011;8809;51.892;8.384;2023-02-23T07:26:16;23.42;;;15.98;;
17382;SDS011;8809;51.892;8.384;2023-02-23T07:28:44;21.73;;;14.57;;
17382;SDS011;8809;51.892;8.384;2023-02-23T07:31:11;22.73;;;14.77;;
17382;SDS011;8809;51.892;8.384;2023-02-23T07:33:39;22.42;;;14.85;;
17382;SDS011;8809;51.892;8.384;2023-02-23T07:36:06;19.73;;;13.70;;
17382;SDS011;8809;51.892;8.384;2023-02-23T07:38:34;19.77;;;13.07;;
17382;SDS011;8809;51.892;8.384;2023-02-23T07:41:01;19.38;;;12.48;;
17382;SDS011;8809;51.892;8.384;2023-02-23T07:43:28;18.38;;;12.60;;
17382;SDS011;8809;51.892;8.384;2023-02-23T07:45:59;17.17;;;12.10;;
17382;SDS011;8809;51.892;8.384;2023-02-23T07:48:26;18.35;;;13.15;;
17382;SDS011;8809;51.892;8.384;2023-02-23T07:50:54;17.73;;;13.15;;
17382;SDS011;8809;51.892;8.384;2023-02-23T07:53:21;20.83;;;13.45;;
17382;SDS011;8809;51.892;8.384;2023-02-23T07:55:54;23.20;;;15.88;;
17382;SDS011;8809;51.892;8.384;2023-02-23T07:58:22;30.13;;;20.40;;
17382;SDS011;8809;51.892;8.384;2023-02-23T08:00:49;30.65;;;19.20;;
17382;SDS011;8809;51.892;8.384;2023-02-23T08:03:17;25.30;;;16.27;;
17382;SDS011;8809;51.892;8.384;2023-02-23T08:05:44;24.05;;;16.23;;
17382;SDS011;8809;51.892;8.384;2023-02-23T08:08:11;23.77;;;15.63;;
17382;SDS011;8809;51.892;8.384;2023-02-23T08:10:38;24.08;;;15.18;;
17382;SDS011;8809;51.892;8.384;2023-02-23T08:13:05;28.15;;;18.33;;
17382;SDS011;8809;51.892;8.384;2023-02-23T08:15:33;27.73;;;17.23;;
17382;SDS011;8809;51.892;8.384;2023-02-23T08:18:00;24.80;;;15.75;;
17382;SDS011;8809;51.892;8.384;2023-02-23T08:20:30;26.02;;;16.13;;
17382;SDS011;8809;51.892;8.384;2023-02-23T08:22:57;21.52;;;14.90;;
17382;SDS011;8809;51.892;8.384;2023-02-23T08:25:24;24.20;;;16.27;;
17382;SDS011;8809;51.892;8.384;2023-02-23T08:27:52;29.38;;;18.23;;
17382;SDS011;8809;51.892;8.384;2023-02-23T08:30:20;25.50;;;15.98;;
17382;SDS011;8809;51.892;8.384;2023-02-23T08:32:48;31.45;;;19.95;;
17382;SDS011;8809;51.892;8.384;2023-02-23T08:35:16;31.13;;;19.75;;
17382;SDS011;8809;51.892;8.384;2023-02-23T08:37:45;38.90;;;23.45;;
17382;SDS011;8809;51.892;8.384;2023-02-23T08:40:16;38.53;;;23.55;;
17382;SDS011;8809;51.892;8.384;2023-02-23T08:42:45;36.60;;;21.65;;
17382;SDS011;8809;51.892;8.384;2023-02-23T08:45:14;40.08;;;22.40;;
17382;SDS011;8809;51.892;8.384;2023-02-23T08:47:42;39.42;;;23.20;;
17382;SDS011;8809;51.892;8.384;2023-02-23T08:50:15;49.40;;;25.52;;
17382;SDS011;8809;51.892;8.384;2023-02-23T08:52:42;40.60;;;23.85;;
17382;SDS011;8809;51.892;8.384;2023-02-23T08:55:11;34.78;;;21.40;;
17382;SDS011;8809;51.892;8.384;2023-02-23T08:57:38;35.45;;;21.55;;
17382;SDS011;8809;51.892;8.384;2023-02-23T09:00:05;34.05;;;20.83;;
17382;SDS011;8809;51.892;8.384;2023-02-23T09:02:39;34.50;;;20.52;;
17382;SDS011;8809;51.892;8.384;2023-02-23T09:05:07;32.42;;;20.13;;
17382;SDS011;8809;51.892;8.384;2023-02-23T09:07:35;29.52;;;18.20;;
17382;SDS011;8809;51.892;8.384;2023-02-23T09:10:05;41.03;;;24.85;;
17382;SDS011;8809;51.892;8.384;2023-02-23T09:12:34;29.98;;;19.45;;
17382;SDS011;8809;51.892;8.384;2023-02-23T09:15:01;42.45;;;25.70;;
17382;SDS011;8809;51.892;8.384;2023-02-23T09:17:29;36.47;;;22.23;;
17382;SDS011;8809;51.892;8.384;2023-02-23T09:19:56;50.08;;;30.35;;
17382;SDS011;8809;51.892;8.384;2023-02-23T09:22:24;48.67;;;26.40;;
17382;SDS011;8809;51.892;8.384;2023-02-23T09:24:51;52.83;;;30.77;;
17382;SDS011;8809;51.892;8.384;2023-02-23T09:27:18;52.05;;;28.55;;
17382;SDS011;8809;51.892;8.384;2023-02-23T09:29:46;44.53;;;25.85;;
17382;SDS011;8809;51.892;8.384;2023-02-23T09:32:13;49.05;;;29.25;;
17382;SDS011;8809;51.892;8.384;2023-02-23T09:34:40;43.40;;;26.02;;
17382;SDS011;8809;51.892;8.384;2023-02-23T09:37:07;43.50;;;26.23;;
17382;SDS011;8809;51.892;8.384;2023-02-23T09:39:34;42.95;;;25.35;;
17382;SDS011;8809;51.892;8.384;2023-02-23T09:45:03;46.65;;;25.23;;
17382;SDS011;8809;51.892;8.384;2023-02-23T09:47:44;43.70;;;26.30;;
17382;SDS011;8809;51.892;8.384;2023-02-23T09:50:30;53.33;;;30.60;;
17382;SDS011;8809;51.892;8.384;2023-02-23T09:53:00;46.63;;;27.45;;
17382;SDS011;8809;51.892;8.384;2023-02-23T09:55:32;44.60;;;25.77;;
17382;SDS011;8809;51.892;8.384;2023-02-23T09:58:01;45.83;;;26.67;;
17382;SDS011;8809;51.892;8.384;2023-02-23T10:00:35;40.20;;;23.52;;
17382;SDS011;8809;51.892;8.384;2023-02-23T10:03:15;46.50;;;27.23;;
17382;SDS011;8809;51.892;8.384;2023-02-23T10:05:51;48.47;;;27.83;;
17382;SDS011;8809;51.892;8.384;2023-02-23T10:08:28;81.10;;;43.45;;
17382;SDS011;8809;51.892;8.384;2023-02-23T10:11:08;65.20;;;36.55;;
17382;SDS011;8809;51.892;8.384;2023-02-23T10:13:47;75.40;;;41.50;;
17382;SDS011;8809;51.892;8.384;2023-02-23T10:16:23;63.55;;;38.00;;
17382;SDS011;8809;51.892;8.384;2023-02-23T10:19:02;70.60;;;40.40;;
17382;SDS011;8809;51.892;8.384;2023-02-23T10:21:38;58.72;;;34.13;;
17382;SDS011;8809;51.892;8.384;2023-02-23T10:24:09;55.20;;;31.85;;
17382;SDS011;8809;51.892;8.384;2023-02-23T10:26:46;51.53;;;30.40;;
17382;SDS011;8809;51.892;8.384;2023-02-23T10:29:21;56.88;;;31.45;;
17382;SDS011;8809;51.892;8.384;2023-02-23T10:31:55;71.60;;;39.40;;
17382;SDS011;8809;51.892;8.384;2023-02-23T10:34:26;59.20;;;36.00;;
17382;SDS011;8809;51.892;8.384;2023-02-23T10:36:56;59.80;;;34.65;;
17382;SDS011;8809;51.892;8.384;2023-02-23T10:39:25;66.97;;;36.30;;
17382;SDS011;8809;51.892;8.384;2023-02-23T10:41:52;57.67;;;33.05;;
17382;SDS011;8809;51.892;8.384;2023-02-23T10:44:23;62.67;;;35.00;;
17382;SDS011;8809;51.892;8.384;2023-02-23T10:46:55;52.42;;;32.03;;
17382;SDS011;8809;51.892;8.384;2023-02-23T10:49:27;53.17;;;30.85;;
17382;SDS011;8809;51.892;8.384;2023-02-23T10:52:07;60.75;;;34.33;;
17382;SDS011;8809;51.892;8.384;2023-02-23T10:54:40;60.50;;;35.22;;
17382;SDS011;8809;51.892;8.384;2023-02-23T10:57:17;49.67;;;28.83;;
17382;SDS011;8809;51.892;8.384;2023-02-23T10:59:58;67.60;;;38.25;;
17382;SDS011;8809;51.892;8.384;2023-02-23T11:02:42;59.22;;;32.05;;
17382;SDS011;8809;51.892;8.384;2023-02-23T11:05:26;53.25;;;31.90;;
17382;SDS011;8809;51.892;8.384;2023-02-23T11:08:10;46.53;;;28.75;;
17382;SDS011;8809;51.892;8.384;2023-02-23T11:10:54;58.88;;;33.17;;
17382;SDS011;8809;51.892;8.384;2023-02-23T11:13:27;56.88;;;33.25;;
17382;SDS011;8809;51.892;8.384;2023-02-23T11:15:59;51.95;;;30.15;;
17382;SDS011;8809;51.892;8.384;2023-02-23T11:18:30;55.53;;;33.13;;
17382;SDS011;8809;51.892;8.384;2023-02-23T11:20:58;81.07;;;45.38;;
17382;SDS011;8809;51.892;8.384;2023-02-23T11:23:27;68.07;;;39.25;;
17382;SDS011;8809;51.892;8.384;2023-02-23T11:26:02;69.80;;;39.33;;
17382;SDS011;8809;51.892;8.384;2023-02-23T11:28:32;70.53;;;40.13;;
17382;SDS011;8809;51.892;8.384;2023-02-23T11:31:02;60.58;;;35.67;;
17382;SDS011;8809;51.892;8.384;2023-02-23T11:33:40;59.38;;;34.53;;
17382;SDS011;8809;51.892;8.384;2023-02-23T11:36:13;64.45;;;38.17;;
17382;SDS011;8809;51.892;8.384;2023-02-23T11:38:43;58.80;;;34.53;;
17382;SDS011;8809;51.892;8.384;2023-02-23T11:41:19;53.60;;;32.17;;
17382;SDS011;8809;51.892;8.384;2023-02-23T11:43:48;63.55;;;37.33;;
17382;SDS011;8809;51.892;8.384;2023-02-23T11:46:17;63.28;;;37.75;;
17382;SDS011;8809;51.892;8.384;2023-02-23T11:48:49;67.43;;;39.88;;
17382;SDS011;8809;51.892;8.384;2023-02-23T11:51:23;64.63;;;38.20;;
17382;SDS011;8809;51.892;8.384;2023-02-23T11:53:53;69.22;;;37.22;;
17382;SDS011;8809;51.892;8.384;2023-02-23T11:56:22;63.08;;;37.05;;
17382;SDS011;8809;51.892;8.384;2023-02-23T11:58:52;59.47;;;35.85;;
17382;SDS011;8809;51.892;8.384;2023-02-23T12:01:22;58.75;;;35.78;;
17382;SDS011;8809;51.892;8.384;2023-02-23T12:04:03;59.47;;;35.17;;
17382;SDS011;8809;51.892;8.384;2023-02-23T12:06:32;55.67;;;33.85;;
17382;SDS011;8809;51.892;8.384;2023-02-23T12:09:04;55.70;;;33.70;;
17382;SDS011;8809;51.892;8.384;2023-02-23T12:11:38;56.85;;;33.60;;
17382;SDS011;8809;51.892;8.384;2023-02-23T12:14:11;58.17;;;34.22;;
17382;SDS011;8809;51.892;8.384;2023-02-23T12:16:47;56.70;;;32.90;;
17382;SDS011;8809;51.892;8.384;2023-02-23T12:19:21;68.43;;;39.03;;
17382;SDS011;8809;51.892;8.384;2023-02-23T12:21:56;65.38;;;37.03;;
17382;SDS011;8809;51.892;8.384;2023-02-23T12:24:30;55.30;;;32.20;;
17382;SDS011;8809;51.892;8.384;2023-02-23T12:27:09;66.35;;;37.85;;
17382;SDS011;8809;51.892;8.384;2023-02-23T12:29:42;49.58;;;29.42;;
17382;SDS011;8809;51.892;8.384;2023-02-23T12:32:19;56.70;;;32.20;;
17382;SDS011;8809;51.892;8.384;2023-02-23T12:34:53;49.72;;;28.73;;
17382;SDS011;8809;51.892;8.384;2023-02-23T12:37:29;60.03;;;35.78;;
17382;SDS011;8809;51.892;8.384;2023-02-23T12:40:18;55.03;;;31.92;;
17382;SDS011;8809;51.892;8.384;2023-02-23T12:42:53;58.50;;;33.45;;
17382;SDS011;8809;51.892;8.384;2023-02-23T12:45:28;53.30;;;30.83;;
17382;SDS011;8809;51.892;8.384;2023-02-23T12:48:03;61.30;;;33.47;;
17382;SDS011;8809;51.892;8.384;2023-02-23T12:50:39;51.75;;;30.45;;
17382;SDS011;8809;51.892;8.384;2023-02-23T12:53:16;43.65;;;25.25;;
17382;SDS011;8809;51.892;8.384;2023-02-23T12:55:55;42.95;;;25.15;;
17382;SDS011;8809;51.892;8.384;2023-02-23T12:58:37;45.58;;;25.83;;
17382;SDS011;8809;51.892;8.384;2023-02-23T13:01:11;56.60;;;31.33;;
17382;SDS011;8809;51.892;8.384;2023-02-23T13:03:52;52.80;;;29.35;;
17382;SDS011;8809;51.892;8.384;2023-02-23T13:06:34;63.92;;;33.80;;
17382;SDS011;8809;51.892;8.384;2023-02-23T13:09:12;50.83;;;29.15;;
17382;SDS011;8809;51.892;8.384;2023-02-23T13:12:01;48.45;;;26.40;;
17382;SDS011;8809;51.892;8.384;2023-02-23T13:14:51;44.13;;;24.67;;
17382;SDS011;8809;51.892;8.384;2023-02-23T13:17:30;37.38;;;21.85;;
17382;SDS011;8809;51.892;8.384;2023-02-23T13:20:05;43.85;;;23.10;;
17382;SDS011;8809;51.892;8.384;2023-02-23T13:22:46;40.13;;;22.25;;
17382;SDS011;8809;51.892;8.384;2023-02-23T13:25:23;37.95;;;21.13;;
17382;SDS011;8809;51.892;8.384;2023-02-23T13:28:02;43.67;;;22.60;;
17382;SDS011;8809;51.892;8.384;2023-02-23T13:30:32;47.53;;;24.95;;
17382;SDS011;8809;51.892;8.384;2023-02-23T13:33:01;40.83;;;23.05;;
17382;SDS011;8809;51.892;8.384;2023-02-23T13:35:41;39.40;;;22.13;;
17382;SDS011;8809;51.892;8.384;2023-02-23T13:38:12;34.85;;;19.70;;
17382;SDS011;8809;51.892;8.384;2023-02-23T13:40:45;39.28;;;21.42;;
17382;SDS011;8809;51.892;8.384;2023-02-23T13:43:17;42.72;;;23.52;;
17382;SDS011;8809;51.892;8.384;2023-02-23T13:45:58;35.30;;;20.70;;
17382;SDS011;8809;51.892;8.384;2023-02-23T13:48:41;37.05;;;19.92;;
17382;SDS011;8809;51.892;8.384;2023-02-23T13:51:18;40.75;;;21.33;;
17382;SDS011;8809;51.892;8.384;2023-02-23T13:53:59;34.55;;;19.58;;
17382;SDS011;8809;51.892;8.384;2023-02-23T13:56:30;40.63;;;20.90;;
17382;SDS011;8809;51.892;8.384;2023-02-23T13:59:03;37.90;;;20.63;;
17382;SDS011;8809;51.892;8.384;2023-02-23T14:01:37;43.42;;;22.90;;
17382;SDS011;8809;51.892;8.384;2023-02-23T14:04:12;39.40;;;20.88;;
17382;SDS011;8809;51.892;8.384;2023-02-23T14:06:49;33.70;;;18.85;;
17382;SDS011;8809;51.892;8.384;2023-02-23T14:09:23;40.58;;;20.83;;
17382;SDS011;8809;51.892;8.384;2023-02-23T14:12:00;35.75;;;18.02;;
17382;SDS011;8809;51.892;8.384;2023-02-23T14:14:39;35.83;;;18.33;;
17382;SDS011;8809;51.892;8.384;2023-02-23T14:17:09;39.22;;;19.80;;
17382;SDS011;8809;51.892;8.384;2023-02-23T14:20:02;35.40;;;17.88;;
17382;SDS011;8809;51.892;8.384;2023-02-23T14:26:14;36.70;;;17.92;;
17382;SDS011;8809;51.892;8.384;2023-02-23T14:28:45;31.92;;;16.50;;
17382;SDS011;8809;51.892;8.384;2023-02-23T14:31:16;38.35;;;19.60;;
17382;SDS011;8809;51.892;8.384;2023-02-23T14:33:50;33.83;;;16.10;;
17382;SDS011;8809;51.892;8.384;2023-02-23T14:36:27;37.83;;;17.67;;
17382;SDS011;8809;51.892;8.384;2023-02-23T14:39:12;32.42;;;17.75;;
17382;SDS011;8809;51.892;8.384;2023-02-23T14:41:48;34.08;;;16.90;;
17382;SDS011;8809;51.892;8.384;2023-02-23T14:44:18;32.35;;;17.77;;
17382;SDS011;8809;51.892;8.384;2023-02-23T14:46:53;30.30;;;15.82;;
17382;SDS011;8809;51.892;8.384;2023-02-23T14:49:24;33.70;;;17.48;;
17382;SDS011;8809;51.892;8.384;2023-02-23T14:51:54;32.13;;;16.45;;
17382;SDS011;8809;51.892;8.384;2023-02-23T14:54:25;32.13;;;15.95;;
17382;SDS011;8809;51.892;8.384;2023-02-23T14:56:59;30.00;;;16.05;;
17382;SDS011;8809;51.892;8.384;2023-02-23T14:59:28;31.55;;;15.98;;
17382;SDS011;8809;51.892;8.384;2023-02-23T15:02:08;32.60;;;15.60;;
17382;SDS011;8809;51.892;8.384;2023-02-23T15:04:40;27.95;;;15.23;;
17382;SDS011;8809;51.892;8.384;2023-02-23T15:07:12;28.13;;;15.30;;
17382;SDS011;8809;51.892;8.384;2023-02-23T15:09:49;25.20;;;13.88;;
17382;SDS011;8809;51.892;8.384;2023-02-23T15:12:20;27.17;;;14.55;;
17382;SDS011;8809;51.892;8.384;2023-02-23T15:14:52;25.27;;;13.57;;
17382;SDS011;8809;51.892;8.384;2023-02-23T15:17:22;22.75;;;11.93;;
17382;SDS011;8809;51.892;8.384;2023-02-23T15:19:52;21.50;;;10.95;;
17382;SDS011;8809;51.892;8.384;2023-02-23T15:22:24;20.65;;;11.13;;
17382;SDS011;8809;51.892;8.384;2023-02-23T15:24:54;24.50;;;11.85;;
17382;SDS011;8809;51.892;8.384;2023-02-23T15:27:35;23.50;;;11.35;;
17382;SDS011;8809;51.892;8.384;2023-02-23T15:30:17;21.83;;;11.07;;
17382;SDS011;8809;51.892;8.384;2023-02-23T15:32:46;22.50;;;10.60;;
17382;SDS011;8809;51.892;8.384;2023-02-23T15:35:14;22.63;;;10.68;;
17382;SDS011;8809;51.892;8.384;2023-02-23T15:37:42;21.65;;;10.38;;
17382;SDS011;8809;51.892;8.384;2023-02-23T15:40:12;23.45;;;11.13;;
17382;SDS011;8809;51.892;8.384;2023-02-23T15:42:44;23.48;;;11.25;;
17382;SDS011;8809;51.892;8.384;2023-02-23T15:45:15;22.20;;;10.82;;
17382;SDS011;8809;51.892;8.384;2023-02-23T15:47:50;23.73;;;11.80;;
17382;SDS011;8809;51.892;8.384;2023-02-23T15:50:21;23.27;;;10.73;;
17382;SDS011;8809;51.892;8.384;2023-02-23T15:52:52;20.67;;;10.05;;
17382;SDS011;8809;51.892;8.384;2023-02-23T15:55:25;20.55;;;10.75;;